createdAt,value
2022-12-29T00:01:42.625Z,6.50
2022-12-29T00:04:15.144Z,6.50
2022-12-29T00:06:43.818Z,6.50
2022-12-29T00:09:13.455Z,6.50
2022-12-29T00:11:40.695Z,6.40
2022-12-29T00:14:27.566Z,6.40
2022-12-29T00:16:54.231Z,6.40
2022-12-29T00:19:40.167Z,6.40
2022-12-29T00:22:25.579Z,6.30
2022-12-29T00:25:01.236Z,6.40
2022-12-29T00:27:47.550Z,6.30
2022-12-29T00:30:35.118Z,6.30
2022-12-29T00:33:27.744Z,6.30
2022-12-29T00:36:02.241Z,6.30
2022-12-29T00:38:48.519Z,6.30
2022-12-29T00:41:34.018Z,6.30
2022-12-29T00:44:06.806Z,6.30
2022-12-29T00:46:37.945Z,6.30
2022-12-29T00:49:24.397Z,6.30
2022-12-29T00:51:51.753Z,6.30
2022-12-29T00:54:18.746Z,6.30
2022-12-29T00:56:50.957Z,6.30
2022-12-29T00:59:19.500Z,6.30
2022-12-29T01:01:47.017Z,6.30
2022-12-29T01:04:14.681Z,6.30
2022-12-29T01:06:42.257Z,6.30
2022-12-29T01:09:28.637Z,6.30
2022-12-29T01:11:55.809Z,6.30
2022-12-29T01:14:23.359Z,6.30
2022-12-29T01:16:50.257Z,6.30
2022-12-29T01:19:18.651Z,6.30
2022-12-29T01:21:45.849Z,6.40
2022-12-29T01:24:12.567Z,6.40
2022-12-29T01:26:39.532Z,6.40
2022-12-29T01:29:06.403Z,6.40
2022-12-29T01:31:34.076Z,6.40
2022-12-29T01:34:00.841Z,6.40
2022-12-29T01:36:27.582Z,6.40
2022-12-29T01:38:54.237Z,6.40
2022-12-29T01:41:20.905Z,6.40
2022-12-29T01:43:56.241Z,6.40
2022-12-29T01:46:41.259Z,6.40
2022-12-29T01:49:27.989Z,6.40
2022-12-29T01:52:03.553Z,6.40
2022-12-29T01:54:53.912Z,6.40
2022-12-29T01:57:32.399Z,6.40
2022-12-29T02:00:09.469Z,6.50
2022-12-29T02:02:36.952Z,6.50
2022-12-29T02:05:15.055Z,6.50
2022-12-29T02:07:42.409Z,6.50
2022-12-29T02:10:09.240Z,6.50
2022-12-29T02:12:36.042Z,6.60
2022-12-29T02:15:03.607Z,6.50
2022-12-29T02:17:36.485Z,6.50
2022-12-29T02:20:53.599Z,6.50
2022-12-29T02:23:45.381Z,6.50
2022-12-29T02:26:30.552Z,5.90
2022-12-29T02:29:48.596Z,6.50
2022-12-29T02:32:43.128Z,6.50
2022-12-29T02:35:41.253Z,6.50
2022-12-29T02:38:22.298Z,6.60
2022-12-29T02:41:01.752Z,6.60
2022-12-29T02:43:45.579Z,6.60
2022-12-29T02:46:28.764Z,6.50
2022-12-29T02:49:22.615Z,6.60
2022-12-29T02:52:04.601Z,6.60
2022-12-29T02:54:43.914Z,6.60
2022-12-29T02:57:28.673Z,6.60
2022-12-29T03:00:02.533Z,6.60
2022-12-29T03:02:54.367Z,6.60
2022-12-29T03:06:00.548Z,6.60
2022-12-29T03:08:41.420Z,6.60
2022-12-29T03:11:33.892Z,6.70
2022-12-29T03:14:27.246Z,6.70
2022-12-29T03:17:13.604Z,6.70
2022-12-29T03:19:47.396Z,6.80
2022-12-29T03:22:28.623Z,6.80
2022-12-29T03:25:11.306Z,6.90
2022-12-29T03:27:43.147Z,6.90
2022-12-29T03:30:10.730Z,6.90
2022-12-29T03:33:00.227Z,7.00
2022-12-29T03:35:30.909Z,7.00
2022-12-29T03:38:12.186Z,7.10
2022-12-29T03:40:44.833Z,7.10
2022-12-29T03:43:12.550Z,7.20
2022-12-29T03:45:39.539Z,7.20
2022-12-29T03:48:06.311Z,7.20
2022-12-29T03:50:32.943Z,7.30
2022-12-29T03:52:59.631Z,7.30
2022-12-29T03:55:26.285Z,7.30
2022-12-29T03:57:52.948Z,7.40
2022-12-29T04:00:19.629Z,7.40
2022-12-29T04:02:46.460Z,7.40
2022-12-29T04:05:13.351Z,7.40
2022-12-29T04:07:41.023Z,7.50
2022-12-29T04:10:07.927Z,7.50
2022-12-29T04:12:34.576Z,7.50
2022-12-29T04:15:01.431Z,7.50
2022-12-29T04:17:28.115Z,7.50
2022-12-29T04:20:14.726Z,7.50
2022-12-29T04:22:41.445Z,7.60
2022-12-29T04:25:08.609Z,7.60
2022-12-29T04:27:35.410Z,7.60
2022-12-29T04:30:02.537Z,7.60
2022-12-29T04:32:29.231Z,7.60
2022-12-29T04:34:56.031Z,7.60
2022-12-29T04:37:22.665Z,7.60
2022-12-29T04:39:49.313Z,7.60
2022-12-29T04:42:15.961Z,7.60
2022-12-29T04:44:45.184Z,7.60
2022-12-29T04:47:12.284Z,7.60
2022-12-29T04:49:38.955Z,7.60
2022-12-29T04:52:05.754Z,7.60
2022-12-29T04:54:32.413Z,8.00
2022-12-29T04:56:59.051Z,7.70
2022-12-29T04:59:25.847Z,7.70
2022-12-29T05:01:52.567Z,7.70
2022-12-29T05:04:19.276Z,7.70
2022-12-29T05:06:45.924Z,7.70
2022-12-29T05:09:12.575Z,7.70
2022-12-29T05:11:39.221Z,7.70
2022-12-29T05:14:06.084Z,7.70
2022-12-29T05:16:32.914Z,7.70
2022-12-29T05:18:59.635Z,7.70
2022-12-29T05:21:26.355Z,7.70
2022-12-29T05:23:52.990Z,7.70
2022-12-29T05:26:19.637Z,7.70
2022-12-29T05:28:46.320Z,7.70
2022-12-29T05:31:13.036Z,7.70
2022-12-29T05:33:39.800Z,7.70
2022-12-29T05:36:08.186Z,7.70
2022-12-29T05:38:35.388Z,7.70
2022-12-29T05:41:02.486Z,7.80
2022-12-29T05:43:29.146Z,7.70
2022-12-29T05:45:56.438Z,7.70
2022-12-29T05:48:23.154Z,7.70
2022-12-29T05:50:51.151Z,7.80
2022-12-29T05:53:18.563Z,7.80
2022-12-29T05:55:49.047Z,7.70
2022-12-29T05:58:17.526Z,7.70
2022-12-29T06:00:44.512Z,7.80
2022-12-29T06:03:12.434Z,7.80
2022-12-29T06:05:39.288Z,7.80
2022-12-29T06:08:05.980Z,7.80
2022-12-29T06:10:32.669Z,7.80
2022-12-29T06:12:59.386Z,7.80
2022-12-29T06:15:26.076Z,7.80
2022-12-29T06:17:52.741Z,7.80
2022-12-29T06:20:19.483Z,7.80
2022-12-29T06:22:47.505Z,7.80
2022-12-29T06:25:14.417Z,7.80
2022-12-29T06:27:41.162Z,7.80
2022-12-29T06:30:08.727Z,7.90
2022-12-29T06:32:35.820Z,7.90
2022-12-29T06:35:03.709Z,7.90
2022-12-29T06:37:30.520Z,7.90
2022-12-29T06:39:57.276Z,7.90
2022-12-29T06:42:24.060Z,7.90
2022-12-29T06:44:50.878Z,7.90
2022-12-29T06:47:17.644Z,7.90
2022-12-29T06:49:44.303Z,7.90
2022-12-29T06:52:13.128Z,8.00
2022-12-29T06:54:40.114Z,8.00
2022-12-29T06:57:06.747Z,8.00
2022-12-29T06:59:34.067Z,8.00
2022-12-29T07:02:03.083Z,8.00
2022-12-29T07:04:30.506Z,8.00
2022-12-29T07:06:57.224Z,8.00
2022-12-29T07:09:23.904Z,8.00
2022-12-29T07:11:51.343Z,8.10
2022-12-29T07:14:18.316Z,8.10
2022-12-29T07:16:45.088Z,8.10
2022-12-29T07:19:11.898Z,8.10
2022-12-29T07:21:38.578Z,8.10
2022-12-29T07:24:05.748Z,8.10
2022-12-29T07:26:36.254Z,8.10
2022-12-29T07:29:04.712Z,8.20
2022-12-29T07:31:31.713Z,9.30
2022-12-29T07:33:58.486Z,8.20
2022-12-29T07:36:29.309Z,9.30
2022-12-29T07:38:59.674Z,8.20
2022-12-29T07:41:26.423Z,8.20
2022-12-29T07:43:53.104Z,8.20
2022-12-29T07:46:54.605Z,8.20
2022-12-29T07:49:06.558Z,8.20
2022-12-29T07:51:33.352Z,8.20
2022-12-29T07:54:01.647Z,8.30
2022-12-29T07:56:28.454Z,8.30
2022-12-29T07:58:55.235Z,8.30
2022-12-29T08:01:24.360Z,8.30
2022-12-29T08:03:56.867Z,8.30
2022-12-29T08:06:24.146Z,8.30
2022-12-29T08:08:50.877Z,8.30
2022-12-29T08:11:17.936Z,8.40
2022-12-29T08:13:44.593Z,8.40
2022-12-29T08:16:11.365Z,8.30
2022-12-29T08:18:38.157Z,8.40
2022-12-29T08:21:05.719Z,8.40
2022-12-29T08:23:32.934Z,8.40
2022-12-29T08:26:01.576Z,8.50
2022-12-29T08:28:28.707Z,8.50
2022-12-29T08:30:58.961Z,8.40
2022-12-29T08:33:26.569Z,8.50
2022-12-29T08:35:53.488Z,9.60
2022-12-29T08:38:20.157Z,8.60
2022-12-29T08:40:46.839Z,8.60
2022-12-29T08:43:15.510Z,8.60
2022-12-29T08:45:45.165Z,8.60
2022-12-29T08:48:12.042Z,8.60
2022-12-29T08:50:39.517Z,8.60
2022-12-29T08:53:06.225Z,8.70
2022-12-29T08:55:32.920Z,8.70
2022-12-29T08:57:59.599Z,8.70
2022-12-29T09:00:26.522Z,8.70
2022-12-29T09:02:53.402Z,8.70
2022-12-29T09:05:20.429Z,8.70
2022-12-29T09:07:47.147Z,8.70
2022-12-29T09:10:14.283Z,8.80
2022-12-29T09:12:40.967Z,8.80
2022-12-29T09:15:08.612Z,8.80
2022-12-29T09:17:47.379Z,8.80
2022-12-29T09:20:20.804Z,8.80
2022-12-29T09:22:47.969Z,8.80
2022-12-29T09:25:15.138Z,8.80
2022-12-29T09:27:42.225Z,8.70
2022-12-29T09:30:11.889Z,10.20
2022-12-29T09:32:44.784Z,8.80
2022-12-29T09:35:12.829Z,8.90
2022-12-29T09:37:39.499Z,8.90
2022-12-29T09:40:08.081Z,8.90
2022-12-29T09:43:00.334Z,8.90
2022-12-29T09:45:52.909Z,8.90
2022-12-29T09:48:28.286Z,8.90
2022-12-29T09:51:00.063Z,8.90
2022-12-29T09:53:32.584Z,8.90
2022-12-29T09:56:01.974Z,8.90
2022-12-29T09:58:36.049Z,8.90
2022-12-29T10:01:14.362Z,8.90
2022-12-29T10:03:56.406Z,8.90
2022-12-29T10:06:28.905Z,8.90
2022-12-29T10:09:07.864Z,8.90
2022-12-29T10:11:58.416Z,8.90
2022-12-29T10:14:48.128Z,8.90
2022-12-29T10:17:32.802Z,8.90
2022-12-29T10:20:11.970Z,8.90
2022-12-29T10:23:05.876Z,8.90
2022-12-29T10:25:39.092Z,8.90
2022-12-29T10:28:21.769Z,8.90
2022-12-29T10:30:54.308Z,8.90
2022-12-29T10:33:24.956Z,8.90
2022-12-29T10:35:52.724Z,8.90
2022-12-29T10:38:38.407Z,8.90
2022-12-29T10:41:31.208Z,8.90
2022-12-29T10:43:59.247Z,8.90
2022-12-29T10:46:34.184Z,8.90
2022-12-29T10:49:02.809Z,8.90
2022-12-29T10:51:34.830Z,8.90
2022-12-29T10:54:07.438Z,8.90
2022-12-29T10:56:35.905Z,9.00
2022-12-29T10:59:40.457Z,9.10
2022-12-29T11:02:10.255Z,9.00
2022-12-29T11:05:05.202Z,9.10
2022-12-29T11:07:32.398Z,9.10
2022-12-29T11:10:19.684Z,9.10
2022-12-29T11:13:03.971Z,9.10
2022-12-29T11:15:48.437Z,9.10
2022-12-29T11:18:26.832Z,9.10
2022-12-29T11:20:57.187Z,9.20
2022-12-29T11:23:26.803Z,9.10
2022-12-29T11:26:11.452Z,9.10
2022-12-29T11:28:39.673Z,9.10
2022-12-29T11:31:07.904Z,9.20
2022-12-29T11:33:39.235Z,9.20
2022-12-29T11:36:28.853Z,9.20
2022-12-29T11:38:56.898Z,9.20
2022-12-29T11:41:30.281Z,9.20
2022-12-29T11:44:00.114Z,9.30
2022-12-29T11:46:33.965Z,9.30
2022-12-29T11:49:02.155Z,9.30
2022-12-29T11:51:34.940Z,9.30
2022-12-29T11:54:05.441Z,9.30
2022-12-29T11:56:40.756Z,9.30
2022-12-29T11:59:35.232Z,9.30
2022-12-29T12:02:24.873Z,9.30
2022-12-29T12:04:59.479Z,9.30
2022-12-29T12:07:42.137Z,9.30
2022-12-29T12:10:18.856Z,9.30
2022-12-29T12:12:57.086Z,9.20
2022-12-29T12:15:30.237Z,9.20
2022-12-29T12:18:03.618Z,9.20
2022-12-29T12:20:51.050Z,9.20
2022-12-29T12:23:39.604Z,9.20
2022-12-29T12:26:12.363Z,9.20
2022-12-29T12:28:43.096Z,9.20
2022-12-29T12:31:21.268Z,9.10
2022-12-29T12:33:51.684Z,9.20
2022-12-29T12:36:46.183Z,9.10
2022-12-29T12:39:20.138Z,9.10
2022-12-29T12:42:15.585Z,9.10
2022-12-29T12:45:08.374Z,9.90
2022-12-29T12:48:04.273Z,9.10
2022-12-29T12:50:50.239Z,9.10
2022-12-29T12:53:46.524Z,9.10
2022-12-29T12:56:37.774Z,9.10
2022-12-29T12:59:11.627Z,9.10
2022-12-29T13:02:21.008Z,9.10
2022-12-29T13:05:02.614Z,9.10
2022-12-29T13:07:50.927Z,9.10
2022-12-29T13:10:36.305Z,9.10
2022-12-29T13:13:22.252Z,9.10
2022-12-29T13:16:10.817Z,9.10
2022-12-29T13:18:59.919Z,9.00
2022-12-29T13:21:52.173Z,9.00
2022-12-29T13:24:48.241Z,9.00
2022-12-29T13:27:38.145Z,8.90
2022-12-29T13:30:06.555Z,9.00
2022-12-29T13:32:42.160Z,8.90
2022-12-29T13:35:38.281Z,8.90
2022-12-29T13:38:16.446Z,8.90
2022-12-29T13:40:48.068Z,8.90
2022-12-29T13:43:16.753Z,8.90
2022-12-29T13:45:46.183Z,8.90
2022-12-29T13:48:23.639Z,8.90
2022-12-29T13:50:55.966Z,8.90
2022-12-29T13:53:43.901Z,8.90
2022-12-29T13:56:32.721Z,8.90
2022-12-29T13:59:17.589Z,8.90
2022-12-29T14:02:05.627Z,8.90
2022-12-29T14:04:34.296Z,8.80
2022-12-29T14:07:15.815Z,8.70
2022-12-29T14:09:53.812Z,8.80
2022-12-29T14:12:33.466Z,8.70
2022-12-29T14:15:14.942Z,8.70
2022-12-29T14:17:42.185Z,8.70
2022-12-29T14:20:22.393Z,8.60
2022-12-29T14:23:15.567Z,8.60
2022-12-29T14:25:57.507Z,8.60
2022-12-29T14:28:32.589Z,8.50
2022-12-29T14:31:19.845Z,8.50
2022-12-29T14:34:08.402Z,8.50
2022-12-29T14:36:39.781Z,8.40
2022-12-29T14:39:28.456Z,8.40
2022-12-29T14:42:11.835Z,8.40
2022-12-29T14:44:59.474Z,8.30
2022-12-29T14:47:46.805Z,8.30
2022-12-29T14:50:22.635Z,8.30
2022-12-29T14:52:58.443Z,8.20
2022-12-29T14:55:54.808Z,8.20
2022-12-29T14:58:28.648Z,8.20
2022-12-29T15:00:56.442Z,8.20
2022-12-29T15:03:31.093Z,8.20
2022-12-29T15:06:12.099Z,8.20
2022-12-29T15:08:50.918Z,8.20
2022-12-29T15:11:32.389Z,8.20
2022-12-29T15:13:59.325Z,8.20
2022-12-29T15:16:36.758Z,8.20
2022-12-29T15:19:06.169Z,8.10
2022-12-29T15:21:35.409Z,8.10
2022-12-29T15:24:06.097Z,8.00
2022-12-29T15:26:46.295Z,7.90
2022-12-29T15:29:30.911Z,7.90
2022-12-29T15:32:01.361Z,7.90
2022-12-29T15:34:32.228Z,7.80
2022-12-29T15:37:00.442Z,7.70
2022-12-29T15:39:31.962Z,7.70
2022-12-29T15:42:27.739Z,7.60
2022-12-29T15:45:09.269Z,7.60
2022-12-29T15:47:37.732Z,7.60
2022-12-29T15:50:10.066Z,7.60
2022-12-29T15:52:40.676Z,7.50
2022-12-29T15:55:19.168Z,7.50
2022-12-29T15:57:45.806Z,7.50
2022-12-29T16:00:33.908Z,7.60
2022-12-29T16:03:03.465Z,7.60
2022-12-29T16:05:36.053Z,7.60
2022-12-29T16:08:03.592Z,7.70
2022-12-29T16:10:38.187Z,7.70
2022-12-29T16:13:31.504Z,7.70
2022-12-29T16:16:13.366Z,7.80
2022-12-29T16:18:40.401Z,7.80
2022-12-29T16:21:19.689Z,7.80
2022-12-29T16:23:51.008Z,7.80
2022-12-29T16:26:19.848Z,7.80
2022-12-29T16:28:51.428Z,7.70
2022-12-29T16:31:33.538Z,7.80
2022-12-29T16:34:12.559Z,7.80
2022-12-29T16:37:03.875Z,7.70
2022-12-29T16:39:37.105Z,7.70
2022-12-29T16:42:37.321Z,7.80
2022-12-29T16:45:24.866Z,7.80
2022-12-29T16:48:06.941Z,7.80
2022-12-29T16:50:36.288Z,7.80
2022-12-29T16:53:04.930Z,7.90
2022-12-29T16:55:32.041Z,7.90
2022-12-29T16:58:00.550Z,7.90
2022-12-29T17:00:30.302Z,7.90
2022-12-29T17:02:59.910Z,8.00
2022-12-29T17:05:26.881Z,7.90
2022-12-29T17:07:53.871Z,8.00
2022-12-29T17:10:20.617Z,8.00
2022-12-29T17:12:49.367Z,8.00
2022-12-29T17:15:25.647Z,8.00
2022-12-29T17:17:55.525Z,8.00
2022-12-29T17:20:28.003Z,8.00
2022-12-29T17:22:55.721Z,8.00
2022-12-29T17:25:29.159Z,8.00
2022-12-29T17:28:16.809Z,7.90
2022-12-29T17:30:43.600Z,8.00
2022-12-29T17:33:15.019Z,8.00
2022-12-29T17:35:42.194Z,8.00
2022-12-29T17:38:27.989Z,8.00
2022-12-29T17:40:55.272Z,8.00
2022-12-29T17:43:22.269Z,8.00
2022-12-29T17:45:53.981Z,8.00
2022-12-29T17:48:21.277Z,8.00
2022-12-29T17:50:49.503Z,8.00
2022-12-29T17:53:20.487Z,8.00
2022-12-29T17:55:47.580Z,7.90
2022-12-29T17:58:14.194Z,7.90
2022-12-29T18:00:41.239Z,7.90
2022-12-29T18:03:14.698Z,7.90
2022-12-29T18:05:41.489Z,7.90
2022-12-29T18:08:10.870Z,7.80
2022-12-29T18:10:37.927Z,7.80
2022-12-29T18:13:04.803Z,7.80
2022-12-29T18:15:37.074Z,7.80
2022-12-29T18:18:15.313Z,7.80
2022-12-29T18:20:43.507Z,7.80
2022-12-29T18:23:23.076Z,7.80
2022-12-29T18:25:51.955Z,7.80
2022-12-29T18:28:18.642Z,7.80
2022-12-29T18:30:45.814Z,7.80
2022-12-29T18:33:21.986Z,7.80
2022-12-29T18:35:58.273Z,7.80
2022-12-29T18:38:25.389Z,7.80
2022-12-29T18:40:52.956Z,7.80
2022-12-29T18:43:20.207Z,7.80
2022-12-29T18:45:46.987Z,7.80
2022-12-29T18:48:14.547Z,7.80
2022-12-29T18:50:41.615Z,7.80
2022-12-29T18:53:16.674Z,7.80
2022-12-29T18:55:44.476Z,7.80
2022-12-29T18:58:11.266Z,7.80
2022-12-29T19:00:38.422Z,7.80
2022-12-29T19:03:05.306Z,7.80
2022-12-29T19:05:41.013Z,7.80
2022-12-29T19:08:08.971Z,7.80
2022-12-29T19:10:36.495Z,7.80
2022-12-29T19:13:03.781Z,7.80
2022-12-29T19:15:35.567Z,7.80
2022-12-29T19:20:52.965Z,7.80
2022-12-29T19:23:22.711Z,7.80
2022-12-29T19:25:50.293Z,7.80
2022-12-29T19:28:21.276Z,7.70
2022-12-29T19:30:52.155Z,7.70
2022-12-29T19:33:20.515Z,7.60
2022-12-29T19:35:47.692Z,7.60
2022-12-29T19:38:14.726Z,7.60
2022-12-29T19:40:47.523Z,7.60
2022-12-29T19:43:15.217Z,7.60
2022-12-29T19:45:43.568Z,7.60
2022-12-29T19:48:18.775Z,7.60
2022-12-29T19:50:45.841Z,7.60
2022-12-29T19:53:13.612Z,7.60
2022-12-29T19:55:47.718Z,7.60
2022-12-29T19:58:14.898Z,7.60
2022-12-29T20:00:43.581Z,7.60
2022-12-29T20:03:11.173Z,7.60
2022-12-29T20:05:39.111Z,7.60
2022-12-29T20:08:06.325Z,7.60
2022-12-29T20:10:33.108Z,7.50
2022-12-29T20:12:59.824Z,7.50
2022-12-29T20:15:26.517Z,7.50
2022-12-29T20:20:39.846Z,7.50
2022-12-29T20:23:06.596Z,7.40
2022-12-29T20:25:53.887Z,7.40
2022-12-29T20:28:20.537Z,7.40
2022-12-29T20:30:54.613Z,7.50
2022-12-29T20:33:21.359Z,7.40
2022-12-29T20:35:48.021Z,7.40
2022-12-29T20:38:14.999Z,7.40
2022-12-29T20:40:46.605Z,7.40
2022-12-29T20:43:14.948Z,7.50
2022-12-29T20:45:41.762Z,7.50
2022-12-29T20:48:08.510Z,7.40
2022-12-29T20:50:35.213Z,7.40
2022-12-29T20:53:01.911Z,7.40
2022-12-29T20:55:28.671Z,7.40
2022-12-29T20:58:23.275Z,7.40
2022-12-29T21:00:42.106Z,7.40
2022-12-29T21:03:08.887Z,7.40
2022-12-29T21:05:37.662Z,7.30
2022-12-29T21:08:04.925Z,7.30
2022-12-29T21:10:31.903Z,7.30
2022-12-29T21:12:58.593Z,7.30
2022-12-29T21:15:25.280Z,7.30
2022-12-29T21:17:51.933Z,7.30
2022-12-29T21:20:29.773Z,7.30
2022-12-29T21:22:57.029Z,7.30
2022-12-29T21:25:24.225Z,7.30
2022-12-29T21:27:50.887Z,7.30
2022-12-29T21:30:17.663Z,7.20
2022-12-29T21:32:44.497Z,7.20
2022-12-29T21:35:11.147Z,7.20
2022-12-29T21:37:37.970Z,7.30
2022-12-29T21:40:05.715Z,7.30
2022-12-29T21:42:32.459Z,7.30
2022-12-29T21:45:20.683Z,7.30
2022-12-29T21:48:07.325Z,7.30
2022-12-29T21:50:36.872Z,7.30
2022-12-29T21:53:04.595Z,7.30
2022-12-29T21:55:31.277Z,7.30
2022-12-29T21:58:16.642Z,7.30
2022-12-29T22:01:02.218Z,7.30
2022-12-29T22:03:47.710Z,7.30
2022-12-29T22:06:32.997Z,7.30
2022-12-29T22:09:20.526Z,7.20
2022-12-29T22:12:06.118Z,7.20
2022-12-29T22:14:32.759Z,7.20
2022-12-29T22:16:59.469Z,7.20
2022-12-29T22:19:26.135Z,7.20
2022-12-29T22:21:52.769Z,7.20
2022-12-29T22:24:19.493Z,7.30
2022-12-29T22:26:46.143Z,7.30
2022-12-29T22:29:12.797Z,7.30
2022-12-29T22:31:39.592Z,7.30
2022-12-29T22:34:06.291Z,7.30
2022-12-29T22:36:33.774Z,7.20
2022-12-29T22:39:00.583Z,7.70
2022-12-29T22:41:27.336Z,7.30
2022-12-29T22:43:55.076Z,7.30
2022-12-29T22:46:22.022Z,7.30
2022-12-29T22:48:48.738Z,7.30
2022-12-29T22:51:15.499Z,7.30
2022-12-29T22:53:42.200Z,7.30
2022-12-29T22:56:13.158Z,7.30
2022-12-29T22:58:44.559Z,7.40
2022-12-29T23:01:13.270Z,7.40
2022-12-29T23:03:40.751Z,7.40
2022-12-29T23:06:10.880Z,7.40
2022-12-29T23:08:38.995Z,8.50
2022-12-29T23:11:08.075Z,7.30
2022-12-29T23:13:35.271Z,7.30
2022-12-29T23:16:02.121Z,7.40
2022-12-29T23:18:29.090Z,7.40
2022-12-29T23:20:55.905Z,7.40
2022-12-29T23:23:48.481Z,7.40
2022-12-29T23:26:17.194Z,7.40
2022-12-29T23:28:44.512Z,7.40
2022-12-29T23:31:11.516Z,7.40
2022-12-29T23:33:38.248Z,7.40
2022-12-29T23:36:05.438Z,7.30
2022-12-29T23:38:32.110Z,7.30
2022-12-29T23:40:58.816Z,7.20
2022-12-29T23:43:25.861Z,7.20
2022-12-29T23:45:52.526Z,7.20
2022-12-29T23:48:19.663Z,7.10
2022-12-29T23:50:46.627Z,7.10
2022-12-29T23:53:13.810Z,7.00
2022-12-29T23:55:44.435Z,7.00
2022-12-29T23:58:11.362Z,7.00
